createdAt,value
2022-10-18T00:00:22.541Z,98.73
2022-10-18T00:02:51.509Z,98.71
2022-10-18T00:05:23.270Z,98.71
2022-10-18T00:07:49.874Z,98.86
2022-10-18T00:10:18.847Z,98.52
2022-10-18T00:15:53.805Z,98.55
2022-10-18T00:18:20.871Z,98.71
2022-10-18T00:21:22.888Z,98.47
2022-10-18T00:23:50.840Z,98.75
2022-10-18T00:26:22.094Z,98.71
2022-10-18T00:28:55.146Z,98.39
2022-10-18T00:34:14.069Z,98.60
2022-10-18T00:36:43.125Z,98.42
2022-10-18T00:39:31.247Z,98.36
2022-10-18T00:41:58.122Z,98.36
2022-10-18T00:44:26.717Z,98.25
2022-10-18T00:46:59.808Z,98.31
2022-10-18T00:49:39.626Z,98.24
2022-10-18T00:52:16.469Z,98.19
2022-10-18T00:54:59.037Z,97.90
2022-10-18T00:57:26.201Z,97.81
2022-10-18T01:00:19.613Z,97.95
2022-10-18T01:02:50.706Z,97.80
2022-10-18T01:05:20.242Z,98.10
2022-10-18T01:08:08.709Z,98.09
2022-10-18T01:11:08.406Z,98.14
2022-10-18T01:13:59.038Z,97.74
2022-10-18T01:17:04.581Z,97.96
2022-10-18T01:20:25.637Z,97.96
2022-10-18T01:22:57.100Z,97.66
2022-10-18T01:26:07.909Z,97.67
2022-10-18T01:29:13.610Z,97.48
2022-10-18T01:37:29.586Z,97.79
2022-10-18T01:39:58.329Z,97.37
2022-10-18T01:42:25.873Z,97.45
2022-10-18T01:44:55.276Z,97.45
2022-10-18T01:47:23.214Z,97.63
2022-10-18T01:49:51.290Z,97.56
2022-10-18T01:52:22.580Z,97.55
2022-10-18T01:54:50.053Z,97.48
2022-10-18T01:57:31.669Z,97.50
2022-10-18T02:00:16.914Z,97.38
2022-10-18T02:02:48.181Z,97.38
2022-10-18T02:05:41.608Z,97.70
2022-10-18T02:08:37.339Z,97.39
2022-10-18T02:11:37.988Z,97.39
2022-10-18T02:14:09.075Z,97.45
2022-10-18T02:16:45.199Z,97.33
2022-10-18T02:19:40.973Z,97.46
2022-10-18T02:22:10.905Z,97.44
2022-10-18T02:24:43.012Z,97.37
2022-10-18T02:27:10.599Z,97.18
2022-10-18T02:29:37.745Z,96.97
2022-10-18T02:32:39.354Z,97.25
2022-10-18T02:35:08.713Z,96.99
2022-10-18T02:37:39.415Z,96.85
2022-10-18T02:40:08.947Z,96.93
2022-10-18T02:45:25.086Z,96.55
2022-10-18T02:47:54.998Z,96.64
2022-10-18T02:53:02.432Z,96.58
2022-10-18T02:57:55.717Z,96.23
2022-10-18T03:00:22.357Z,96.28
2022-10-18T03:02:49.307Z,96.07
2022-10-18T03:05:16.039Z,96.10
2022-10-18T03:08:07.016Z,96.15
2022-10-18T03:10:35.885Z,95.93
2022-10-18T03:13:06.369Z,95.75
2022-10-18T03:15:32.967Z,95.54
2022-10-18T03:17:59.570Z,95.36
2022-10-18T03:20:26.257Z,95.62
2022-10-18T03:22:52.963Z,95.63
2022-10-18T03:25:22.233Z,95.76
2022-10-18T03:27:48.945Z,95.48
2022-10-18T03:30:17.395Z,95.47
2022-10-18T03:32:45.459Z,95.50
2022-10-18T03:35:12.084Z,95.44
2022-10-18T03:37:38.742Z,95.29
2022-10-18T03:40:08.091Z,95.33
2022-10-18T03:42:35.896Z,95.41
2022-10-18T03:45:02.664Z,95.21
2022-10-18T03:50:29.922Z,95.08
2022-10-18T03:52:59.126Z,94.79
2022-10-18T03:55:25.745Z,94.93
2022-10-18T03:57:52.296Z,94.87
2022-10-18T04:00:21.400Z,94.77
2022-10-18T04:02:51.899Z,94.54
2022-10-18T04:05:25.530Z,94.66
2022-10-18T04:07:52.126Z,94.77
2022-10-18T04:10:19.125Z,94.47
2022-10-18T04:12:45.857Z,94.03
2022-10-18T04:15:13.908Z,94.44
2022-10-18T04:17:40.550Z,94.15
2022-10-18T04:20:07.634Z,94.19
2022-10-18T04:22:34.259Z,93.77
2022-10-18T04:25:01.331Z,93.71
2022-10-18T04:27:27.989Z,93.96
2022-10-18T04:29:55.996Z,94.03
2022-10-18T04:32:22.930Z,93.77
2022-10-18T04:34:52.310Z,93.88
2022-10-18T04:37:18.922Z,93.81
2022-10-18T04:39:51.225Z,93.79
2022-10-18T04:42:20.630Z,93.60
2022-10-18T04:44:47.363Z,93.84
2022-10-18T04:47:14.030Z,93.43
2022-10-18T04:49:40.614Z,93.50
2022-10-18T04:52:07.377Z,93.60
2022-10-18T04:54:33.978Z,93.71
2022-10-18T04:57:00.613Z,93.40
2022-10-18T04:59:27.196Z,93.31
2022-10-18T05:01:53.992Z,93.58
2022-10-18T05:04:20.732Z,93.27
2022-10-18T05:06:47.433Z,93.56
2022-10-18T05:09:14.079Z,93.47
2022-10-18T05:11:40.723Z,93.32
2022-10-18T05:14:10.235Z,92.98
2022-10-18T05:16:36.886Z,93.25
2022-10-18T05:19:05.718Z,92.88
2022-10-18T05:21:33.749Z,92.95
2022-10-18T05:24:00.491Z,92.94
2022-10-18T05:26:28.020Z,92.52
2022-10-18T05:28:57.057Z,92.50
2022-10-18T05:31:23.770Z,92.69
2022-10-18T05:33:51.778Z,92.40
2022-10-18T05:36:18.551Z,92.61
2022-10-18T05:38:45.636Z,92.56
2022-10-18T05:41:12.809Z,92.59
2022-10-18T05:43:42.643Z,92.85
2022-10-18T05:46:14.604Z,93.23
2022-10-18T05:48:46.008Z,93.26
2022-10-18T05:51:12.731Z,93.29
2022-10-18T05:53:39.327Z,93.09
2022-10-18T05:56:09.159Z,93.46
2022-10-18T05:58:35.790Z,93.48
2022-10-18T06:01:06.014Z,93.33
2022-10-18T06:10:28.817Z,94.83
2022-10-18T06:12:55.264Z,95.40
2022-10-18T06:15:22.790Z,95.68
2022-10-18T06:17:49.248Z,95.51
2022-10-18T06:20:15.832Z,95.98
2022-10-18T06:22:42.304Z,95.81
2022-10-18T06:25:09.402Z,95.82
2022-10-18T06:27:35.865Z,95.86
2022-10-18T06:30:02.537Z,95.99
2022-10-18T06:32:30.031Z,96.36
2022-10-18T06:35:01.488Z,96.29
2022-10-18T06:37:31.790Z,96.27
2022-10-18T06:39:58.741Z,96.23
2022-10-18T06:42:27.864Z,96.45
2022-10-18T06:44:54.453Z,96.19
2022-10-18T06:47:21.192Z,96.06
2022-10-18T06:49:48.014Z,96.06
2022-10-18T06:55:19.942Z,96.02
2022-10-18T06:57:46.812Z,95.75
2022-10-18T07:00:14.111Z,95.79
2022-10-18T07:05:26.884Z,95.45
2022-10-18T07:07:56.529Z,95.52
2022-10-18T07:10:24.160Z,95.40
2022-10-18T07:12:56.013Z,95.53
2022-10-18T07:18:31.047Z,95.49
2022-10-18T07:20:57.675Z,95.28
2022-10-18T07:23:53.974Z,95.27
2022-10-18T07:26:23.284Z,95.29
2022-10-18T07:28:55.377Z,95.26
2022-10-18T07:31:23.013Z,95.05
2022-10-18T07:33:49.762Z,95.09
2022-10-18T07:36:16.807Z,94.99
2022-10-18T07:39:08.815Z,94.70
2022-10-18T07:41:35.918Z,94.83
2022-10-18T07:44:03.738Z,94.74
2022-10-18T07:46:33.264Z,95.02
2022-10-18T07:49:04.692Z,95.58
2022-10-18T07:51:32.865Z,94.95
2022-10-18T07:53:59.783Z,94.81
2022-10-18T07:56:29.929Z,94.80
2022-10-18T07:58:57.110Z,95.24
2022-10-18T08:01:24.869Z,95.03
2022-10-18T08:03:53.791Z,95.18
2022-10-18T08:06:24.676Z,95.74
2022-10-18T08:08:52.334Z,95.52
2022-10-18T08:11:22.289Z,95.09
2022-10-18T08:13:49.239Z,94.99
2022-10-18T08:16:19.333Z,95.16
2022-10-18T08:18:46.252Z,95.01
2022-10-18T08:21:14.178Z,95.54
2022-10-18T08:23:41.314Z,95.07
2022-10-18T08:26:12.266Z,95.57
2022-10-18T08:28:39.409Z,95.59
2022-10-18T08:34:19.377Z,95.57
2022-10-18T08:36:46.325Z,95.01
2022-10-18T08:39:12.883Z,94.35
2022-10-18T08:41:42.418Z,95.10
2022-10-18T08:44:11.930Z,94.66
2022-10-18T08:46:45.410Z,94.96
2022-10-18T08:49:21.301Z,95.05
2022-10-18T08:51:50.954Z,94.30
2022-10-18T08:54:43.635Z,93.66
2022-10-18T08:57:29.854Z,93.51
2022-10-18T08:59:56.591Z,94.16
2022-10-18T09:03:01.623Z,94.39
2022-10-18T09:05:46.253Z,94.58
2022-10-18T09:08:32.473Z,94.99
2022-10-18T09:11:02.179Z,94.99
2022-10-18T09:13:59.429Z,94.38
2022-10-18T09:16:36.694Z,94.10
2022-10-18T09:19:10.381Z,94.64
2022-10-18T09:21:52.829Z,94.88
2022-10-18T09:24:30.924Z,94.81
2022-10-18T09:27:04.710Z,94.23
2022-10-18T09:29:48.754Z,93.54
2022-10-18T09:32:36.491Z,94.09
2022-10-18T09:35:26.028Z,92.38
2022-10-18T09:38:09.688Z,92.55
2022-10-18T09:40:47.048Z,91.85
2022-10-18T09:55:05.558Z,93.95
2022-10-18T09:58:07.496Z,92.39
2022-10-18T10:00:44.777Z,90.78
2022-10-18T10:03:14.942Z,91.29
2022-10-18T10:05:42.822Z,91.33
2022-10-18T10:08:09.848Z,89.41
2022-10-18T10:10:39.205Z,89.96
2022-10-18T10:13:18.955Z,88.84
2022-10-18T10:15:52.202Z,87.63
2022-10-18T10:18:22.538Z,85.59
2022-10-18T10:20:53.581Z,86.75
2022-10-18T10:23:31.753Z,86.75
2022-10-18T10:26:03.909Z,85.71
2022-10-18T10:28:35.770Z,83.89
2022-10-18T10:31:19.703Z,83.68
2022-10-18T10:33:47.983Z,83.18
2022-10-18T10:36:19.944Z,83.13
2022-10-18T10:38:46.823Z,81.18
2022-10-18T10:41:22.188Z,80.94
2022-10-18T10:43:51.319Z,82.96
2022-10-18T10:46:20.112Z,83.49
2022-10-18T10:49:09.529Z,82.33
2022-10-18T10:51:40.938Z,82.46
2022-10-18T10:54:15.717Z,81.02
2022-10-18T10:56:56.793Z,81.77
2022-10-18T10:59:26.588Z,82.33
2022-10-18T11:02:30.371Z,81.60
2022-10-18T11:05:15.429Z,78.95
2022-10-18T11:07:45.559Z,79.09
2022-10-18T11:10:13.561Z,79.94
2022-10-18T11:12:45.056Z,80.52
2022-10-18T11:15:12.511Z,79.21
2022-10-18T11:17:56.193Z,78.13
2022-10-18T11:20:29.594Z,77.87
2022-10-18T11:22:55.998Z,75.98
2022-10-18T11:25:25.600Z,75.50
2022-10-18T11:28:04.389Z,76.71
2022-10-18T11:30:41.938Z,78.79
2022-10-18T11:33:50.043Z,76.74
2022-10-18T11:36:20.896Z,76.18
2022-10-18T11:39:02.006Z,77.82
2022-10-18T11:41:35.713Z,76.46
2022-10-18T11:44:09.477Z,76.37
2022-10-18T11:46:52.094Z,75.42
2022-10-18T11:49:44.433Z,73.28
2022-10-18T11:52:26.620Z,72.19
2022-10-18T11:54:59.258Z,73.62
2022-10-18T11:57:25.934Z,74.84
2022-10-18T12:00:02.050Z,74.19
2022-10-18T12:03:13.067Z,74.55
2022-10-18T12:05:44.820Z,74.34
2022-10-18T12:08:12.259Z,75.84
2022-10-18T12:10:52.688Z,75.21
2022-10-18T12:13:40.449Z,74.28
2022-10-18T12:16:09.768Z,73.69
2022-10-18T12:18:46.879Z,73.38
2022-10-18T12:21:13.780Z,74.11
2022-10-18T12:23:52.985Z,72.79
2022-10-18T12:26:20.764Z,74.92
2022-10-18T12:28:51.047Z,72.91
2022-10-18T12:31:21.587Z,72.64
2022-10-18T12:33:54.293Z,72.14
2022-10-18T12:36:20.714Z,72.62
2022-10-18T12:38:52.879Z,73.20
2022-10-18T12:41:26.912Z,73.27
2022-10-18T12:43:58.871Z,72.15
2022-10-18T12:46:43.896Z,71.85
2022-10-18T12:49:12.969Z,71.84
2022-10-18T12:51:51.785Z,71.22
2022-10-18T12:54:29.545Z,69.13
2022-10-18T12:56:56.991Z,69.31
2022-10-18T12:59:40.712Z,71.24
2022-10-18T13:02:07.683Z,70.41
2022-10-18T13:04:35.120Z,70.80
2022-10-18T13:10:29.199Z,69.92
2022-10-18T13:14:16.531Z,69.18
2022-10-18T13:20:07.774Z,69.07
2022-10-18T13:27:09.606Z,68.73
2022-10-18T13:30:32.789Z,70.29
2022-10-18T14:01:20.964Z,68.76
2022-10-18T14:04:23.090Z,72.45
2022-10-18T14:29:41.014Z,72.45
2022-10-18T14:35:39.141Z,74.04
2022-10-18T15:04:44.883Z,72.76
2022-10-18T15:06:01.687Z,71.07
2022-10-18T15:09:24.188Z,71.68
2022-10-18T15:14:52.247Z,73.72
2022-10-18T15:40:37.736Z,73.30
2022-10-18T17:01:14.163Z,81.63
2022-10-18T17:03:55.125Z,81.30
2022-10-18T17:13:51.292Z,82.21
2022-10-18T18:44:39.747Z,84.99
